Terminal Aerodrome Forecast
Issued by NWS

Home | Current Version | Previous Version | Text Only | Print | Product List | Glossary On
Versions: 1 2 3 4 5 6 7 8 9 10 11 12 13 14 15 16 17 18 19 20 21 22 23
000
FTAK31 PANC 261732
TAFAHO
TAF
PAHO 261732Z 2618/2718 VRB04KT P6SM VCSH FEW008 OVC050
     FM262200 24006KT P6SM -SHRA SCT015 BKN050
     FM270400 VRB04KT P6SM VCSH FEW015 OVC050=

USA.gov is the U.S. government's official web portal to all federal, state and local government web resources and services.